createdAt,value
2018-09-13T00:01:01.436Z,57.86
2018-09-13T00:03:30.737Z,57.93
2018-09-13T00:06:00.090Z,58.56
2018-09-13T00:08:29.232Z,58.42
2018-09-13T00:10:58.507Z,57.65
2018-09-13T00:13:27.734Z,57.90
2018-09-13T00:15:57.091Z,57.63
2018-09-13T00:18:26.332Z,58.46
2018-09-13T00:20:55.605Z,58.87
2018-09-13T00:23:24.868Z,59.09
2018-09-13T00:25:54.191Z,58.78
2018-09-13T00:28:23.486Z,58.08
2018-09-13T00:30:52.800Z,58.70
2018-09-13T00:33:22.035Z,58.70
2018-09-13T00:35:51.283Z,58.50
2018-09-13T00:38:20.557Z,58.51
2018-09-13T00:40:49.866Z,58.80
2018-09-13T00:43:19.122Z,58.35
2018-09-13T00:45:48.427Z,58.70
2018-09-13T00:48:17.765Z,58.44
2018-09-13T00:50:46.997Z,58.74
2018-09-13T00:53:16.762Z,58.50
2018-09-13T00:55:45.997Z,58.91
2018-09-13T00:58:15.607Z,58.74
2018-09-13T01:00:45.000Z,59.35
2018-09-13T01:03:14.819Z,58.48
2018-09-13T01:05:44.599Z,58.90
2018-09-13T01:08:14.403Z,58.83
2018-09-13T01:10:43.600Z,59.64
2018-09-13T01:13:12.870Z,59.08
2018-09-13T01:15:42.199Z,59.58
2018-09-13T01:18:11.680Z,58.86
2018-09-13T01:20:41.062Z,59.10
2018-09-13T01:23:10.354Z,59.52
2018-09-13T01:25:39.591Z,59.59
2018-09-13T01:28:08.849Z,59.95
2018-09-13T01:30:38.092Z,59.25
2018-09-13T01:33:07.359Z,58.85
2018-09-13T01:35:36.606Z,59.21
2018-09-13T01:38:05.870Z,59.38
2018-09-13T01:40:35.126Z,59.28
2018-09-13T01:43:04.405Z,59.72
2018-09-13T01:45:33.749Z,59.47
2018-09-13T01:48:03.244Z,59.38
2018-09-13T01:50:32.520Z,59.22
2018-09-13T01:53:01.771Z,59.67
2018-09-13T01:55:31.051Z,59.70
2018-09-13T01:58:00.331Z,58.60
2018-09-13T02:00:29.598Z,58.72
2018-09-13T02:02:58.876Z,59.48
2018-09-13T02:05:28.135Z,59.12
2018-09-13T02:07:57.367Z,59.47
2018-09-13T02:10:26.648Z,58.79
2018-09-13T02:12:55.903Z,59.27
2018-09-13T02:15:25.319Z,59.08
2018-09-13T02:17:54.570Z,58.83
2018-09-13T02:20:23.872Z,59.52
2018-09-13T02:22:54.070Z,58.98
2018-09-13T02:25:23.331Z,59.11
2018-09-13T02:27:52.568Z,58.81
2018-09-13T02:30:21.834Z,59.42
2018-09-13T02:32:51.151Z,59.79
2018-09-13T02:35:20.527Z,58.81
2018-09-13T02:37:49.845Z,59.80
2018-09-13T02:40:19.134Z,59.28
2018-09-13T02:42:48.402Z,59.06
2018-09-13T02:45:19.000Z,59.46
2018-09-13T02:47:48.251Z,59.30
2018-09-13T02:50:19.015Z,59.75
2018-09-13T02:52:48.282Z,59.67
2018-09-13T02:55:17.791Z,59.26
2018-09-13T02:57:47.095Z,59.27
2018-09-13T03:00:17.301Z,59.52
2018-09-13T03:02:46.584Z,59.86
2018-09-13T03:05:16.862Z,58.95
2018-09-13T03:07:46.040Z,59.60
2018-09-13T03:10:15.961Z,59.41
2018-09-13T03:12:45.117Z,59.34
2018-09-13T03:15:15.987Z,60.09
2018-09-13T03:17:45.251Z,60.16
2018-09-13T03:20:16.373Z,59.37
2018-09-13T03:22:45.589Z,59.37
2018-09-13T03:25:16.983Z,59.42
2018-09-13T03:27:46.208Z,59.63
2018-09-13T03:30:17.361Z,59.73
2018-09-13T03:32:46.558Z,59.75
2018-09-13T03:35:16.716Z,60.25
2018-09-13T03:37:45.924Z,59.65
2018-09-13T03:40:15.996Z,60.44
2018-09-13T03:42:45.218Z,59.67
2018-09-13T03:45:14.902Z,59.47
2018-09-13T03:47:44.119Z,59.79
2018-09-13T03:50:15.062Z,59.75
2018-09-13T03:52:49.891Z,59.69
2018-09-13T03:55:19.096Z,59.23
2018-09-13T03:57:48.354Z,60.03
2018-09-13T04:00:18.147Z,59.78
2018-09-13T04:02:47.351Z,59.16
2018-09-13T04:05:17.279Z,59.70
2018-09-13T04:07:46.467Z,59.95
2018-09-13T04:10:17.237Z,59.03
2018-09-13T04:12:47.288Z,59.98
2018-09-13T04:15:17.199Z,59.43
2018-09-13T04:17:46.377Z,59.56
2018-09-13T04:20:16.805Z,59.40
2018-09-13T04:22:46.018Z,59.91
2018-09-13T04:25:17.124Z,59.29
2018-09-13T04:27:46.306Z,59.59
2018-09-13T04:30:17.201Z,58.95
2018-09-13T04:32:46.417Z,59.41
2018-09-13T04:35:15.630Z,60.04
2018-09-13T04:37:44.783Z,59.66
2018-09-13T04:40:14.980Z,60.24
2018-09-13T04:42:44.204Z,59.78
2018-09-13T04:45:14.602Z,60.12
2018-09-13T04:47:43.774Z,60.08
2018-09-13T04:50:13.312Z,59.43
2018-09-13T04:52:42.502Z,59.67
2018-09-13T04:55:13.414Z,59.91
2018-09-13T04:57:42.596Z,59.54
2018-09-13T05:00:12.364Z,59.84
2018-09-13T05:02:41.624Z,59.57
2018-09-13T05:05:12.154Z,59.56
2018-09-13T05:07:41.374Z,58.93
2018-09-13T05:10:11.416Z,59.01
2018-09-13T05:12:40.621Z,59.31
2018-09-13T05:15:11.028Z,59.28
2018-09-13T05:17:40.248Z,59.46
2018-09-13T05:20:10.575Z,59.55
2018-09-13T05:22:39.732Z,60.06
2018-09-13T05:25:10.009Z,59.13
2018-09-13T05:27:39.199Z,59.75
2018-09-13T05:30:09.491Z,59.04
2018-09-13T05:32:38.707Z,59.65
2018-09-13T05:35:07.917Z,59.42
2018-09-13T05:37:37.217Z,59.60
2018-09-13T05:40:06.671Z,59.92
2018-09-13T05:42:35.855Z,59.16
2018-09-13T05:45:05.155Z,58.94
2018-09-13T05:47:34.305Z,59.59
2018-09-13T05:50:03.515Z,58.89
2018-09-13T05:52:32.708Z,58.32
2018-09-13T05:55:01.894Z,58.22
2018-09-13T05:57:31.072Z,58.78
2018-09-13T06:00:00.264Z,58.61
2018-09-13T06:02:29.491Z,58.80
2018-09-13T06:04:58.725Z,59.28
2018-09-13T06:07:27.940Z,58.58
2018-09-13T06:09:57.351Z,58.58
2018-09-13T06:12:26.527Z,58.08
2018-09-13T06:14:55.680Z,58.82
2018-09-13T06:17:24.856Z,59.11
2018-09-13T06:19:54.259Z,58.45
2018-09-13T06:22:23.342Z,58.27
2018-09-13T06:24:52.583Z,57.99
2018-09-13T06:27:21.823Z,58.27
2018-09-13T06:29:51.051Z,57.81
2018-09-13T06:32:20.195Z,57.55
2018-09-13T06:34:49.414Z,57.70
2018-09-13T06:37:18.620Z,57.63
2018-09-13T06:39:47.844Z,57.67
2018-09-13T06:42:17.285Z,56.58
2018-09-13T06:44:46.384Z,56.66
2018-09-13T06:47:15.588Z,55.33
2018-09-13T06:49:44.776Z,54.84
2018-09-13T06:52:13.984Z,55.15
2018-09-13T06:54:43.136Z,55.15
2018-09-13T06:57:12.378Z,54.69
2018-09-13T06:59:41.577Z,54.69
2018-09-13T07:02:11.036Z,55.17
2018-09-13T07:04:40.217Z,54.94
2018-09-13T07:07:09.888Z,55.23
2018-09-13T07:09:39.084Z,54.99
2018-09-13T07:12:08.708Z,54.53
2018-09-13T07:14:37.883Z,55.57
2018-09-13T07:17:07.421Z,54.70
2018-09-13T07:19:36.569Z,54.33
2018-09-13T07:22:05.963Z,53.98
2018-09-13T07:24:35.171Z,54.05
2018-09-13T07:27:04.387Z,54.67
2018-09-13T07:29:33.553Z,54.00
2018-09-13T07:32:02.718Z,53.81
2018-09-13T07:34:31.897Z,53.87
2018-09-13T07:37:01.128Z,53.68
2018-09-13T07:39:30.355Z,54.78
2018-09-13T07:41:59.616Z,54.45
2018-09-13T07:44:28.847Z,55.01
2018-09-13T07:46:58.117Z,54.93
2018-09-13T07:49:27.296Z,54.25
2018-09-13T07:51:56.502Z,53.99
2018-09-13T07:54:25.664Z,53.76
2018-09-13T07:56:55.135Z,53.91
2018-09-13T07:59:24.322Z,53.43
2018-09-13T08:01:53.500Z,52.73
2018-09-13T08:04:22.672Z,52.23
2018-09-13T08:06:51.909Z,52.17
2018-09-13T08:09:21.099Z,50.19
2018-09-13T08:11:50.358Z,49.03
2018-09-13T08:14:19.461Z,48.48
2018-09-13T08:16:48.659Z,48.14
2018-09-13T08:19:17.884Z,47.62
2018-09-13T08:21:47.272Z,47.65
2018-09-13T08:24:16.325Z,47.01
2018-09-13T08:26:45.526Z,47.72
2018-09-13T08:29:14.706Z,47.86
2018-09-13T08:31:43.939Z,48.29
2018-09-13T08:34:13.124Z,47.96
2018-09-13T08:36:42.351Z,48.50
2018-09-13T08:39:12.429Z,47.80
2018-09-13T08:41:41.742Z,48.34
2018-09-13T08:44:11.211Z,49.83
2018-09-13T08:46:40.436Z,49.97
2018-09-13T08:49:09.935Z,49.07
2018-09-13T08:51:39.179Z,49.99
2018-09-13T08:54:08.753Z,50.78
2018-09-13T08:56:37.989Z,50.93
2018-09-13T08:59:07.516Z,50.89
2018-09-13T09:01:36.707Z,51.99
2018-09-13T09:04:05.944Z,51.19
2018-09-13T09:06:35.305Z,51.43
2018-09-13T09:09:07.162Z,51.71
2018-09-13T09:11:36.370Z,52.27
2018-09-13T09:14:05.566Z,51.88
2018-09-13T09:16:34.782Z,52.03
2018-09-13T09:19:04.002Z,52.61
2018-09-13T09:21:33.194Z,51.44
2018-09-13T09:24:02.502Z,50.87
2018-09-13T09:26:31.734Z,51.06
2018-09-13T09:29:00.918Z,51.45
2018-09-13T09:31:30.179Z,51.54
2018-09-13T09:33:59.870Z,51.77
2018-09-13T09:36:29.161Z,50.68
2018-09-13T09:38:58.390Z,51.20
2018-09-13T09:41:27.622Z,51.14
2018-09-13T09:43:57.679Z,52.02
2018-09-13T09:46:26.932Z,52.52
2018-09-13T09:48:56.100Z,52.34
2018-09-13T09:51:25.311Z,51.61
2018-09-13T09:53:54.664Z,50.42
2018-09-13T09:56:23.915Z,51.70
2018-09-13T09:58:53.383Z,51.82
2018-09-13T10:01:39.947Z,51.72
2018-09-13T10:04:11.283Z,51.06
2018-09-13T10:06:42.087Z,51.28
2018-09-13T10:09:13.411Z,51.14
2018-09-13T10:11:44.334Z,51.88
2018-09-13T10:14:13.510Z,52.25
2018-09-13T10:16:47.959Z,51.78
2018-09-13T10:19:25.308Z,51.94
2018-09-13T10:21:59.650Z,52.73
2018-09-13T10:24:34.039Z,51.65
2018-09-13T10:27:08.466Z,51.05
2018-09-13T10:29:43.004Z,51.08
2018-09-13T10:32:17.388Z,50.57
2018-09-13T10:34:51.969Z,51.12
2018-09-13T10:37:26.223Z,50.53
2018-09-13T10:42:04.492Z,50.03
2018-09-13T10:44:38.836Z,50.65
2018-09-13T10:47:13.220Z,50.12
2018-09-13T10:49:47.465Z,50.78
2018-09-13T10:52:20.844Z,49.94
2018-09-13T10:54:49.958Z,51.24
2018-09-13T10:57:24.335Z,50.78
2018-09-13T10:59:53.510Z,49.97
2018-09-13T11:02:22.688Z,51.49
2018-09-13T11:04:51.863Z,50.71
2018-09-13T11:07:21.067Z,50.58
2018-09-13T11:09:50.200Z,50.44
2018-09-13T11:12:23.599Z,50.19
2018-09-13T11:14:57.303Z,50.78
2018-09-13T11:17:26.930Z,50.02
2018-09-13T11:19:56.082Z,51.10
2018-09-13T11:22:25.281Z,50.97
2018-09-13T11:24:54.505Z,50.30
2018-09-13T11:27:23.695Z,50.73
2018-09-13T11:29:52.908Z,50.06
2018-09-13T11:32:22.111Z,51.23
2018-09-13T11:34:51.280Z,50.62
2018-09-13T11:37:20.476Z,50.52
2018-09-13T11:39:49.681Z,48.61
2018-09-13T11:42:18.818Z,48.10
2018-09-13T11:44:48.013Z,48.24
2018-09-13T11:47:17.239Z,48.73
2018-09-13T11:49:46.405Z,47.78
2018-09-13T11:52:15.648Z,49.14
2018-09-13T11:54:44.809Z,49.90
2018-09-13T11:57:14.002Z,49.50
2018-09-13T11:59:43.163Z,47.96
2018-09-13T12:02:12.381Z,48.68
2018-09-13T12:04:41.549Z,49.43
2018-09-13T12:07:11.152Z,49.27
2018-09-13T12:09:40.319Z,49.88
2018-09-13T12:12:09.827Z,48.80
2018-09-13T12:14:39.001Z,48.40
2018-09-13T12:17:08.659Z,49.77
2018-09-13T12:19:37.909Z,49.12
2018-09-13T12:22:07.327Z,49.04
2018-09-13T12:24:36.527Z,49.31
2018-09-13T12:27:05.724Z,48.76
2018-09-13T12:29:34.891Z,49.65
2018-09-13T12:32:04.082Z,49.31
2018-09-13T12:34:33.240Z,48.63
2018-09-13T12:37:02.418Z,48.59
2018-09-13T12:39:31.569Z,48.54
2018-09-13T12:42:00.755Z,48.25
2018-09-13T12:44:29.939Z,47.33
2018-09-13T12:46:59.167Z,47.31
2018-09-13T12:49:28.420Z,47.26
2018-09-13T12:51:57.889Z,47.77
2018-09-13T12:54:27.117Z,47.30
2018-09-13T12:56:59.353Z,47.28
2018-09-13T12:59:28.497Z,47.75
2018-09-13T13:01:57.795Z,49.47
2018-09-13T13:04:27.027Z,50.07
2018-09-13T13:06:56.273Z,50.09
2018-09-13T13:09:25.443Z,50.51
2018-09-13T13:11:54.673Z,50.92
2018-09-13T13:14:23.881Z,49.54
2018-09-13T13:16:53.114Z,49.85
2018-09-13T13:19:22.286Z,49.93
2018-09-13T13:21:51.459Z,51.18
2018-09-13T13:24:20.628Z,51.79
2018-09-13T13:26:49.876Z,52.05
2018-09-13T13:29:19.076Z,52.16
2018-09-13T13:31:48.246Z,52.73
2018-09-13T13:34:17.463Z,51.52
2018-09-13T13:36:46.711Z,52.96
2018-09-13T13:39:15.905Z,52.89
2018-09-13T13:41:45.107Z,52.78
2018-09-13T13:44:14.363Z,52.85
2018-09-13T13:46:43.579Z,52.74
2018-09-13T13:49:12.835Z,52.93
2018-09-13T13:51:42.034Z,52.76
2018-09-13T13:54:11.244Z,51.61
2018-09-13T13:56:40.422Z,51.49
2018-09-13T13:59:09.621Z,51.93
2018-09-13T14:01:38.826Z,52.36
2018-09-13T14:04:08.392Z,52.48
2018-09-13T14:06:37.593Z,51.55
2018-09-13T14:09:10.677Z,52.54
2018-09-13T14:11:39.951Z,52.04
2018-09-13T14:14:09.560Z,52.19
2018-09-13T14:16:38.877Z,51.10
2018-09-13T14:19:08.454Z,51.62
2018-09-13T14:21:37.633Z,52.03
2018-09-13T14:24:07.022Z,52.31
2018-09-13T14:26:36.257Z,52.19
2018-09-13T14:29:05.854Z,51.99
2018-09-13T14:31:35.110Z,51.50
2018-09-13T14:34:04.344Z,51.17
2018-09-13T14:36:33.612Z,51.48
2018-09-13T14:39:02.874Z,51.76
2018-09-13T14:41:32.412Z,50.70
2018-09-13T14:44:01.654Z,51.24
2018-09-13T14:46:30.835Z,51.45
2018-09-13T14:49:00.048Z,50.96
2018-09-13T14:51:29.239Z,51.31
2018-09-13T14:53:58.398Z,50.94
2018-09-13T14:56:27.599Z,50.83
2018-09-13T14:58:56.771Z,50.84
2018-09-13T15:01:26.039Z,49.77
2018-09-13T15:03:55.222Z,49.21
2018-09-13T15:06:24.450Z,49.93
2018-09-13T15:08:53.647Z,50.95
2018-09-13T15:11:22.850Z,50.33
2018-09-13T15:13:52.032Z,50.71
2018-09-13T15:16:21.210Z,50.24
2018-09-13T15:18:50.500Z,50.56
2018-09-13T15:21:19.752Z,49.95
2018-09-13T15:23:48.961Z,50.25
2018-09-13T15:26:18.217Z,51.45
2018-09-13T15:28:47.423Z,51.27
2018-09-13T15:31:16.696Z,51.63
2018-09-13T15:33:45.832Z,50.94
2018-09-13T15:36:15.050Z,52.09
2018-09-13T15:38:44.320Z,52.12
2018-09-13T15:41:13.534Z,51.72
2018-09-13T15:43:42.719Z,51.38
2018-09-13T15:46:12.044Z,50.71
2018-09-13T15:48:41.223Z,51.02
2018-09-13T15:51:10.683Z,51.49
2018-09-13T15:53:39.839Z,52.14
2018-09-13T15:56:09.466Z,51.77
2018-09-13T15:58:38.707Z,52.52
2018-09-13T16:01:08.346Z,52.68
2018-09-13T16:03:37.495Z,52.02
2018-09-13T16:06:06.921Z,52.25
2018-09-13T16:08:36.093Z,52.57
2018-09-13T16:11:05.280Z,52.58
2018-09-13T16:13:34.782Z,52.50
2018-09-13T16:16:04.059Z,52.14
2018-09-13T16:18:33.293Z,52.13
2018-09-13T16:21:02.579Z,52.27
2018-09-13T16:23:31.727Z,52.85
2018-09-13T16:26:00.988Z,51.84
2018-09-13T16:28:30.308Z,52.46
2018-09-13T16:30:59.608Z,52.50
2018-09-13T16:33:28.778Z,52.33
2018-09-13T16:36:00.118Z,53.10
2018-09-13T16:38:34.550Z,52.13
2018-09-13T16:41:09.080Z,52.83
2018-09-13T16:43:43.424Z,52.30
2018-09-13T16:46:18.067Z,51.41
2018-09-13T16:48:47.324Z,52.09
2018-09-13T16:51:16.523Z,51.63
2018-09-13T16:53:45.707Z,52.07
2018-09-13T16:56:14.934Z,52.18
2018-09-13T16:58:44.124Z,51.62
2018-09-13T17:01:14.383Z,52.26
2018-09-13T17:03:43.790Z,53.04
2018-09-13T17:06:13.079Z,53.09
2018-09-13T17:08:46.187Z,53.11
2018-09-13T17:11:16.330Z,53.10
2018-09-13T17:13:45.658Z,52.82
2018-09-13T17:16:14.972Z,52.63
2018-09-13T17:18:44.441Z,53.08
2018-09-13T17:21:14.360Z,52.65
2018-09-13T17:23:43.623Z,53.11
2018-09-13T17:26:12.836Z,53.44
2018-09-13T17:28:42.031Z,52.69
2018-09-13T17:31:11.484Z,52.66
2018-09-13T17:33:40.685Z,52.69
2018-09-13T17:36:10.187Z,53.68
2018-09-13T17:38:39.331Z,53.80
2018-09-13T17:41:09.008Z,53.28
2018-09-13T17:43:38.755Z,53.72
2018-09-13T17:46:08.395Z,53.41
2018-09-13T17:48:38.254Z,54.12
2018-09-13T17:51:08.313Z,54.33
2018-09-13T17:53:37.612Z,53.94
2018-09-13T17:56:07.135Z,54.29
2018-09-13T17:58:36.619Z,54.27
2018-09-13T18:01:06.108Z,53.89
2018-09-13T18:03:35.335Z,54.38
2018-09-13T18:06:04.625Z,54.77
2018-09-13T18:08:41.092Z,54.88
2018-09-13T18:11:10.609Z,54.23
2018-09-13T18:13:40.053Z,54.39
2018-09-13T18:16:09.279Z,53.76
2018-09-13T18:18:38.475Z,53.87
2018-09-13T18:21:07.697Z,54.25
2018-09-13T18:23:36.948Z,54.05
2018-09-13T18:26:06.127Z,54.25
2018-09-13T18:28:35.325Z,54.69
2018-09-13T18:31:04.873Z,54.32
2018-09-13T18:33:34.095Z,54.12
2018-09-13T18:36:03.316Z,54.75
2018-09-13T18:38:32.828Z,53.92
2018-09-13T18:41:02.148Z,54.20
2018-09-13T18:43:31.324Z,54.52
2018-09-13T18:46:00.786Z,54.74
2018-09-13T18:48:30.083Z,55.16
2018-09-13T18:50:59.344Z,55.50
2018-09-13T18:53:28.600Z,55.27
2018-09-13T18:55:57.873Z,55.88
2018-09-13T18:58:27.252Z,55.43
2018-09-13T19:00:56.414Z,55.57
2018-09-13T19:03:25.751Z,55.72
2018-09-13T19:05:55.098Z,55.54
2018-09-13T19:08:24.304Z,55.96
2018-09-13T19:10:53.638Z,56.33
2018-09-13T19:13:22.780Z,55.25
2018-09-13T19:15:52.061Z,55.92
2018-09-13T19:18:21.259Z,55.70
2018-09-13T19:20:50.488Z,54.83
2018-09-13T19:23:19.690Z,54.71
2018-09-13T19:26:18.572Z,55.53
2018-09-13T19:28:47.806Z,54.90
2018-09-13T19:31:17.279Z,55.61
2018-09-13T19:33:46.480Z,54.92
2018-09-13T19:36:15.915Z,55.81
2018-09-13T19:38:45.184Z,56.30
2018-09-13T19:41:14.891Z,57.79
2018-09-13T19:43:44.129Z,58.37
2018-09-13T19:46:14.667Z,58.71
2018-09-13T19:48:43.852Z,58.63
2018-09-13T19:51:14.028Z,58.77
2018-09-13T19:53:43.234Z,59.94
2018-09-13T19:56:13.281Z,59.15
2018-09-13T19:58:42.477Z,60.63
2018-09-13T20:01:11.850Z,59.44
2018-09-13T20:03:42.703Z,59.85
2018-09-13T20:06:11.911Z,60.29
2018-09-13T20:08:41.253Z,59.36
2018-09-13T20:11:10.415Z,59.09
2018-09-13T20:13:39.609Z,59.77
2018-09-13T20:16:08.817Z,59.71
2018-09-13T20:18:38.115Z,59.32
2018-09-13T20:21:07.284Z,59.26
2018-09-13T20:23:36.471Z,59.42
2018-09-13T20:26:05.706Z,59.57
2018-09-13T20:28:34.932Z,59.67
2018-09-13T20:31:04.151Z,59.87
2018-09-13T20:33:33.372Z,60.27
2018-09-13T20:36:02.663Z,59.97
2018-09-13T20:38:31.916Z,60.56
2018-09-13T20:41:01.147Z,60.43
2018-09-13T20:43:30.375Z,60.70
2018-09-13T20:45:59.573Z,60.56
2018-09-13T20:48:28.823Z,60.52
2018-09-13T20:50:57.997Z,60.68
2018-09-13T20:53:27.230Z,60.85
2018-09-13T20:55:56.487Z,61.09
2018-09-13T20:58:25.770Z,61.58
2018-09-13T21:00:55.086Z,61.27
2018-09-13T21:03:24.400Z,61.33
2018-09-13T21:05:53.660Z,60.98
2018-09-13T21:08:22.914Z,61.61
2018-09-13T21:10:52.175Z,60.93
2018-09-13T21:13:22.022Z,60.73
2018-09-13T21:15:51.281Z,60.70
2018-09-13T21:18:20.491Z,61.17
2018-09-13T21:20:49.700Z,61.19
2018-09-13T21:23:18.912Z,61.61
2018-09-13T21:25:48.153Z,61.68
2018-09-13T21:28:17.408Z,62.97
2018-09-13T21:30:46.643Z,63.24
2018-09-13T21:33:15.976Z,63.26
2018-09-13T21:35:45.235Z,64.44
2018-09-13T21:38:15.040Z,64.79
2018-09-13T21:40:44.269Z,65.79
2018-09-13T21:43:14.171Z,65.63
2018-09-13T21:45:43.404Z,65.49
2018-09-13T21:48:12.772Z,65.96
2018-09-13T21:50:42.929Z,66.61
2018-09-13T21:53:14.946Z,67.38
2018-09-13T21:55:45.487Z,66.04
2018-09-13T21:58:15.118Z,65.43
2018-09-13T22:00:44.393Z,66.31
2018-09-13T22:03:14.252Z,65.92
2018-09-13T22:05:43.467Z,66.81
2018-09-13T22:08:13.351Z,66.62
2018-09-13T22:10:42.562Z,66.78
2018-09-13T22:13:11.779Z,66.60
2018-09-13T22:15:41.046Z,66.99
2018-09-13T22:18:10.269Z,67.38
2018-09-13T22:20:39.475Z,67.41
2018-09-13T22:23:08.658Z,68.31
2018-09-13T22:25:37.915Z,68.63
2018-09-13T22:28:07.160Z,67.78
2018-09-13T22:30:36.412Z,68.17
2018-09-13T22:33:05.684Z,69.47
2018-09-13T22:35:37.779Z,69.09
2018-09-13T22:38:07.045Z,69.39
2018-09-13T22:40:36.239Z,68.60
2018-09-13T22:43:05.552Z,68.50
2018-09-13T22:45:34.850Z,68.61
2018-09-13T22:48:04.045Z,68.17
2018-09-13T22:50:33.282Z,68.59
2018-09-13T22:53:02.588Z,68.30
2018-09-13T22:55:31.868Z,68.51
2018-09-13T22:58:01.067Z,68.37
2018-09-13T23:00:31.071Z,68.17
2018-09-13T23:03:00.323Z,68.81
2018-09-13T23:05:29.759Z,67.83
2018-09-13T23:07:58.962Z,67.23
2018-09-13T23:10:28.249Z,67.15
2018-09-13T23:12:57.459Z,67.44
2018-09-13T23:15:26.686Z,67.84
2018-09-13T23:17:56.033Z,68.10
2018-09-13T23:20:25.228Z,67.75
2018-09-13T23:22:54.477Z,67.08
2018-09-13T23:25:23.773Z,66.56
2018-09-13T23:27:53.010Z,67.48
2018-09-13T23:30:23.152Z,66.57
2018-09-13T23:32:52.476Z,67.13
2018-09-13T23:35:21.732Z,67.57
2018-09-13T23:37:50.951Z,66.86
2018-09-13T23:40:20.304Z,66.66
2018-09-13T23:42:49.407Z,66.91
2018-09-13T23:45:19.498Z,66.72
2018-09-13T23:47:48.660Z,66.96
2018-09-13T23:50:18.252Z,66.24
2018-09-13T23:52:47.452Z,66.57
2018-09-13T23:55:19.098Z,66.29
2018-09-13T23:57:48.279Z,67.39
